sensor_id;sensor_type;location;lat;lon;timestamp;P1;durP1;ratioP1;P2;durP2;ratioP2
34035;SDS011;63481;52.588;22.472;2023-06-22T00:00:22;16.60;;;10.80;;
34035;SDS011;63481;52.588;22.472;2023-06-22T00:01:17;14.30;;;10.80;;
34035;SDS011;63481;52.588;22.472;2023-06-22T00:01:50;14.90;;;10.50;;
34035;SDS011;63481;52.588;22.472;2023-06-22T00:02:22;14.40;;;10.20;;
34035;SDS011;63481;52.588;22.472;2023-06-22T00:02:54;13.90;;;10.30;;
34035;SDS011;63481;52.588;22.472;2023-06-22T00:03:26;12.70;;;10.00;;
34035;SDS011;63481;52.588;22.472;2023-06-22T00:03:58;13.20;;;10.30;;
34035;SDS011;63481;52.588;22.472;2023-06-22T00:04:31;13.10;;;10.10;;
34035;SDS011;63481;52.588;22.472;2023-06-22T00:05:03;15.50;;;9.80;;
34035;SDS011;63481;52.588;22.472;2023-06-22T00:05:35;16.90;;;10.80;;
34035;SDS011;63481;52.588;22.472;2023-06-22T00:06:07;13.30;;;10.40;;
34035;SDS011;63481;52.588;22.472;2023-06-22T00:06:39;16.10;;;10.70;;
34035;SDS011;63481;52.588;22.472;2023-06-22T00:07:11;13.20;;;10.50;;
34035;SDS011;63481;52.588;22.472;2023-06-22T00:07:44;17.40;;;11.10;;
34035;SDS011;63481;52.588;22.472;2023-06-22T00:08:16;14.00;;;10.10;;
34035;SDS011;63481;52.588;22.472;2023-06-22T00:08:48;14.60;;;9.60;;
34035;SDS011;63481;52.588;22.472;2023-06-22T00:09:21;12.60;;;9.90;;
34035;SDS011;63481;52.588;22.472;2023-06-22T00:09:53;14.40;;;9.80;;
34035;SDS011;63481;52.588;22.472;2023-06-22T00:10:25;17.60;;;10.20;;
34035;SDS011;63481;52.588;22.472;2023-06-22T00:10:57;15.00;;;9.60;;
34035;SDS011;63481;52.588;22.472;2023-06-22T00:11:29;15.40;;;10.00;;
34035;SDS011;63481;52.588;22.472;2023-06-22T00:12:03;22.80;;;10.80;;
34035;SDS011;63481;52.588;22.472;2023-06-22T00:12:35;22.20;;;11.40;;
34035;SDS011;63481;52.588;22.472;2023-06-22T00:13:07;22.00;;;12.10;;
34035;SDS011;63481;52.588;22.472;2023-06-22T00:13:40;22.80;;;12.00;;
34035;SDS011;63481;52.588;22.472;2023-06-22T00:14:12;17.40;;;11.80;;
34035;SDS011;63481;52.588;22.472;2023-06-22T00:14:46;20.30;;;12.30;;
34035;SDS011;63481;52.588;22.472;2023-06-22T00:15:19;18.70;;;12.50;;
34035;SDS011;63481;52.588;22.472;2023-06-22T00:15:51;25.10;;;12.50;;
34035;SDS011;63481;52.588;22.472;2023-06-22T00:16:23;24.60;;;12.60;;
34035;SDS011;63481;52.588;22.472;2023-06-22T00:16:55;23.00;;;12.70;;
34035;SDS011;63481;52.588;22.472;2023-06-22T00:17:29;18.70;;;12.70;;
34035;SDS011;63481;52.588;22.472;2023-06-22T00:18:01;19.40;;;12.90;;
34035;SDS011;63481;52.588;22.472;2023-06-22T00:18:34;27.20;;;13.20;;
34035;SDS011;63481;52.588;22.472;2023-06-22T00:19:06;28.20;;;14.10;;
34035;SDS011;63481;52.588;22.472;2023-06-22T00:19:38;22.80;;;14.80;;
34035;SDS011;63481;52.588;22.472;2023-06-22T00:20:12;24.50;;;13.30;;
34035;SDS011;63481;52.588;22.472;2023-06-22T00:20:46;24.80;;;14.30;;
34035;SDS011;63481;52.588;22.472;2023-06-22T00:21:18;23.90;;;14.40;;
34035;SDS011;63481;52.588;22.472;2023-06-22T00:21:52;27.20;;;14.00;;
34035;SDS011;63481;52.588;22.472;2023-06-22T00:22:24;19.60;;;12.30;;
34035;SDS011;63481;52.588;22.472;2023-06-22T00:22:59;23.00;;;13.20;;
34035;SDS011;63481;52.588;22.472;2023-06-22T00:23:32;31.00;;;12.90;;
34035;SDS011;63481;52.588;22.472;2023-06-22T00:24:06;18.40;;;12.40;;
34035;SDS011;63481;52.588;22.472;2023-06-22T00:24:38;20.10;;;12.30;;
34035;SDS011;63481;52.588;22.472;2023-06-22T00:25:13;17.60;;;11.60;;
34035;SDS011;63481;52.588;22.472;2023-06-22T00:25:45;16.10;;;11.40;;
34035;SDS011;63481;52.588;22.472;2023-06-22T00:26:17;20.10;;;11.40;;
34035;SDS011;63481;52.588;22.472;2023-06-22T00:26:50;15.40;;;11.80;;
34035;SDS011;63481;52.588;22.472;2023-06-22T00:27:22;15.30;;;11.90;;
34035;SDS011;63481;52.588;22.472;2023-06-22T00:27:54;16.00;;;11.60;;
34035;SDS011;63481;52.588;22.472;2023-06-22T00:28:26;15.80;;;11.90;;
34035;SDS011;63481;52.588;22.472;2023-06-22T00:28:59;16.10;;;11.90;;
34035;SDS011;63481;52.588;22.472;2023-06-22T00:29:31;20.40;;;12.20;;
34035;SDS011;63481;52.588;22.472;2023-06-22T00:30:03;17.20;;;13.10;;
34035;SDS011;63481;52.588;22.472;2023-06-22T00:30:36;17.50;;;11.90;;
34035;SDS011;63481;52.588;22.472;2023-06-22T00:31:08;16.40;;;12.50;;
34035;SDS011;63481;52.588;22.472;2023-06-22T00:31:41;17.20;;;12.50;;
34035;SDS011;63481;52.588;22.472;2023-06-22T00:32:13;18.70;;;12.80;;
34035;SDS011;63481;52.588;22.472;2023-06-22T00:32:45;15.20;;;11.80;;
34035;SDS011;63481;52.588;22.472;2023-06-22T00:33:19;21.60;;;12.90;;
34035;SDS011;63481;52.588;22.472;2023-06-22T00:33:51;15.30;;;12.60;;
34035;SDS011;63481;52.588;22.472;2023-06-22T00:34:23;17.50;;;13.00;;
34035;SDS011;63481;52.588;22.472;2023-06-22T00:34:55;17.90;;;12.90;;
34035;SDS011;63481;52.588;22.472;2023-06-22T00:35:27;17.40;;;13.20;;
34035;SDS011;63481;52.588;22.472;2023-06-22T00:36:02;17.10;;;13.60;;
34035;SDS011;63481;52.588;22.472;2023-06-22T00:36:36;18.80;;;13.60;;
34035;SDS011;63481;52.588;22.472;2023-06-22T00:37:08;19.00;;;13.80;;
34035;SDS011;63481;52.588;22.472;2023-06-22T00:37:42;17.40;;;14.20;;
34035;SDS011;63481;52.588;22.472;2023-06-22T00:38:14;17.50;;;13.90;;
34035;SDS011;63481;52.588;22.472;2023-06-22T00:38:47;16.90;;;13.90;;
34035;SDS011;63481;52.588;22.472;2023-06-22T00:39:22;16.30;;;13.40;;
34035;SDS011;63481;52.588;22.472;2023-06-22T00:39:56;14.80;;;13.20;;
34035;SDS011;63481;52.588;22.472;2023-06-22T00:40:28;18.00;;;12.60;;
34035;SDS011;63481;52.588;22.472;2023-06-22T00:41:03;17.80;;;12.90;;
34035;SDS011;63481;52.588;22.472;2023-06-22T00:41:35;18.40;;;13.30;;
34035;SDS011;63481;52.588;22.472;2023-06-22T00:42:07;16.60;;;12.60;;
34035;SDS011;63481;52.588;22.472;2023-06-22T00:42:40;17.10;;;12.50;;
34035;SDS011;63481;52.588;22.472;2023-06-22T00:43:13;14.30;;;12.10;;
34035;SDS011;63481;52.588;22.472;2023-06-22T00:43:45;16.30;;;13.20;;
34035;SDS011;63481;52.588;22.472;2023-06-22T00:44:17;16.90;;;12.80;;
34035;SDS011;63481;52.588;22.472;2023-06-22T00:44:49;15.20;;;12.10;;
34035;SDS011;63481;52.588;22.472;2023-06-22T00:45:23;16.10;;;13.10;;
34035;SDS011;63481;52.588;22.472;2023-06-22T00:45:55;16.60;;;12.90;;
34035;SDS011;63481;52.588;22.472;2023-06-22T00:46:28;15.10;;;12.90;;
34035;SDS011;63481;52.588;22.472;2023-06-22T00:47:01;14.00;;;12.00;;
34035;SDS011;63481;52.588;22.472;2023-06-22T00:47:34;19.00;;;12.70;;
34035;SDS011;63481;52.588;22.472;2023-06-22T00:48:09;17.40;;;12.60;;
34035;SDS011;63481;52.588;22.472;2023-06-22T00:48:41;15.30;;;12.50;;
34035;SDS011;63481;52.588;22.472;2023-06-22T00:49:16;17.30;;;13.30;;
34035;SDS011;63481;52.588;22.472;2023-06-22T00:49:48;17.00;;;12.90;;
34035;SDS011;63481;52.588;22.472;2023-06-22T00:50:23;17.70;;;14.00;;
34035;SDS011;63481;52.588;22.472;2023-06-22T00:50:57;16.80;;;13.00;;
34035;SDS011;63481;52.588;22.472;2023-06-22T00:51:29;17.60;;;12.60;;
34035;SDS011;63481;52.588;22.472;2023-06-22T00:52:02;16.60;;;12.90;;
34035;SDS011;63481;52.588;22.472;2023-06-22T00:52:34;16.60;;;13.20;;
34035;SDS011;63481;52.588;22.472;2023-06-22T00:53:08;19.00;;;13.40;;
34035;SDS011;63481;52.588;22.472;2023-06-22T00:53:41;16.70;;;13.20;;
34035;SDS011;63481;52.588;22.472;2023-06-22T00:54:15;19.40;;;13.80;;
34035;SDS011;63481;52.588;22.472;2023-06-22T00:54:48;18.00;;;12.90;;
34035;SDS011;63481;52.588;22.472;2023-06-22T00:55:20;18.80;;;14.40;;
34035;SDS011;63481;52.588;22.472;2023-06-22T00:55:56;19.20;;;13.20;;
34035;SDS011;63481;52.588;22.472;2023-06-22T00:56:32;16.80;;;14.30;;
34035;SDS011;63481;52.588;22.472;2023-06-22T00:57:06;18.20;;;13.40;;
34035;SDS011;63481;52.588;22.472;2023-06-22T00:57:42;17.00;;;13.40;;
34035;SDS011;63481;52.588;22.472;2023-06-22T00:58:15;15.20;;;12.80;;
34035;SDS011;63481;52.588;22.472;2023-06-22T00:58:50;16.50;;;13.50;;
34035;SDS011;63481;52.588;22.472;2023-06-22T00:59:27;15.20;;;13.00;;
34035;SDS011;63481;52.588;22.472;2023-06-22T01:00:00;18.30;;;13.70;;
34035;SDS011;63481;52.588;22.472;2023-06-22T01:00:32;18.00;;;13.30;;
34035;SDS011;63481;52.588;22.472;2023-06-22T01:01:04;17.80;;;14.10;;
34035;SDS011;63481;52.588;22.472;2023-06-22T01:01:36;18.60;;;14.20;;
34035;SDS011;63481;52.588;22.472;2023-06-22T01:02:13;17.60;;;14.10;;
34035;SDS011;63481;52.588;22.472;2023-06-22T01:02:46;19.50;;;14.60;;
34035;SDS011;63481;52.588;22.472;2023-06-22T01:03:19;16.50;;;13.90;;
34035;SDS011;63481;52.588;22.472;2023-06-22T01:03:52;17.80;;;14.00;;
34035;SDS011;63481;52.588;22.472;2023-06-22T01:04:34;16.40;;;13.90;;
34035;SDS011;63481;52.588;22.472;2023-06-22T01:05:07;15.70;;;13.00;;
34035;SDS011;63481;52.588;22.472;2023-06-22T01:05:40;18.10;;;14.20;;
34035;SDS011;63481;52.588;22.472;2023-06-22T01:06:14;18.70;;;15.00;;
34035;SDS011;63481;52.588;22.472;2023-06-22T01:06:54;17.50;;;14.40;;
34035;SDS011;63481;52.588;22.472;2023-06-22T01:07:42;17.30;;;14.60;;
34035;SDS011;63481;52.588;22.472;2023-06-22T01:08:57;18.30;;;15.30;;
34035;SDS011;63481;52.588;22.472;2023-06-22T01:09:49;16.50;;;14.60;;
34035;SDS011;63481;52.588;22.472;2023-06-22T01:11:11;19.00;;;14.70;;
34035;SDS011;63481;52.588;22.472;2023-06-22T01:11:52;17.10;;;14.40;;
34035;SDS011;63481;52.588;22.472;2023-06-22T01:12:32;18.20;;;15.10;;
34035;SDS011;63481;52.588;22.472;2023-06-22T01:13:13;17.40;;;15.60;;
34035;SDS011;63481;52.588;22.472;2023-06-22T01:13:57;18.90;;;15.40;;
34035;SDS011;63481;52.588;22.472;2023-06-22T01:14:49;18.70;;;14.40;;
34035;SDS011;63481;52.588;22.472;2023-06-22T01:15:31;23.60;;;16.10;;
34035;SDS011;63481;52.588;22.472;2023-06-22T01:16:15;19.30;;;15.50;;
34035;SDS011;63481;52.588;22.472;2023-06-22T01:16:51;18.00;;;14.90;;
34035;SDS011;63481;52.588;22.472;2023-06-22T01:17:28;22.10;;;15.70;;
34035;SDS011;63481;52.588;22.472;2023-06-22T01:18:03;16.50;;;14.00;;
34035;SDS011;63481;52.588;22.472;2023-06-22T01:18:38;18.00;;;15.40;;
34035;SDS011;63481;52.588;22.472;2023-06-22T01:19:18;17.90;;;14.40;;
34035;SDS011;63481;52.588;22.472;2023-06-22T01:20:01;16.30;;;13.70;;
34035;SDS011;63481;52.588;22.472;2023-06-22T01:20:37;16.80;;;13.00;;
34035;SDS011;63481;52.588;22.472;2023-06-22T01:21:13;20.30;;;13.60;;
34035;SDS011;63481;52.588;22.472;2023-06-22T01:21:49;14.70;;;12.90;;
34035;SDS011;63481;52.588;22.472;2023-06-22T01:22:24;16.20;;;13.60;;
34035;SDS011;63481;52.588;22.472;2023-06-22T01:23:03;18.40;;;13.10;;
34035;SDS011;63481;52.588;22.472;2023-06-22T01:26:52;16.10;;;13.00;;
34035;SDS011;63481;52.588;22.472;2023-06-22T01:28:57;15.20;;;12.70;;
34035;SDS011;63481;52.588;22.472;2023-06-22T01:29:36;18.00;;;12.70;;
34035;SDS011;63481;52.588;22.472;2023-06-22T01:30:11;17.80;;;13.60;;
34035;SDS011;63481;52.588;22.472;2023-06-22T01:30:50;18.80;;;12.70;;
34035;SDS011;63481;52.588;22.472;2023-06-22T01:31:35;19.30;;;12.20;;
34035;SDS011;63481;52.588;22.472;2023-06-22T01:32:07;15.70;;;12.60;;
34035;SDS011;63481;52.588;22.472;2023-06-22T01:32:40;15.30;;;12.50;;
34035;SDS011;63481;52.588;22.472;2023-06-22T01:33:13;19.80;;;12.70;;
34035;SDS011;63481;52.588;22.472;2023-06-22T01:33:49;15.70;;;12.30;;
34035;SDS011;63481;52.588;22.472;2023-06-22T01:34:24;15.20;;;12.40;;
34035;SDS011;63481;52.588;22.472;2023-06-22T01:34:57;15.00;;;12.40;;
34035;SDS011;63481;52.588;22.472;2023-06-22T01:35:31;14.80;;;12.20;;
34035;SDS011;63481;52.588;22.472;2023-06-22T01:36:06;15.90;;;12.60;;
34035;SDS011;63481;52.588;22.472;2023-06-22T01:36:39;18.30;;;12.70;;
34035;SDS011;63481;52.588;22.472;2023-06-22T01:37:12;15.90;;;11.60;;
34035;SDS011;63481;52.588;22.472;2023-06-22T01:37:46;18.70;;;11.70;;
34035;SDS011;63481;52.588;22.472;2023-06-22T01:38:21;16.10;;;13.10;;
34035;SDS011;63481;52.588;22.472;2023-06-22T01:38:57;16.10;;;12.60;;
34035;SDS011;63481;52.588;22.472;2023-06-22T01:39:30;14.20;;;12.60;;
34035;SDS011;63481;52.588;22.472;2023-06-22T01:40:04;13.70;;;11.70;;
34035;SDS011;63481;52.588;22.472;2023-06-22T01:40:37;16.20;;;12.40;;
34035;SDS011;63481;52.588;22.472;2023-06-22T01:41:11;15.60;;;12.40;;
34035;SDS011;63481;52.588;22.472;2023-06-22T01:41:44;18.40;;;13.00;;
34035;SDS011;63481;52.588;22.472;2023-06-22T01:42:17;14.70;;;12.10;;
34035;SDS011;63481;52.588;22.472;2023-06-22T01:42:49;15.60;;;12.20;;
34035;SDS011;63481;52.588;22.472;2023-06-22T01:43:23;15.30;;;11.80;;
34035;SDS011;63481;52.588;22.472;2023-06-22T01:43:58;14.40;;;12.10;;
34035;SDS011;63481;52.588;22.472;2023-06-22T01:44:32;15.70;;;12.20;;
34035;SDS011;63481;52.588;22.472;2023-06-22T01:45:06;15.00;;;12.60;;
34035;SDS011;63481;52.588;22.472;2023-06-22T01:45:39;17.60;;;12.20;;
34035;SDS011;63481;52.588;22.472;2023-06-22T01:46:11;17.60;;;11.70;;
34035;SDS011;63481;52.588;22.472;2023-06-22T01:46:44;14.20;;;11.50;;
34035;SDS011;63481;52.588;22.472;2023-06-22T01:47:22;16.80;;;12.70;;
34035;SDS011;63481;52.588;22.472;2023-06-22T01:47:56;16.20;;;11.90;;
34035;SDS011;63481;52.588;22.472;2023-06-22T01:48:29;14.90;;;12.10;;
34035;SDS011;63481;52.588;22.472;2023-06-22T01:49:03;16.00;;;11.60;;
34035;SDS011;63481;52.588;22.472;2023-06-22T01:49:36;14.50;;;11.20;;
34035;SDS011;63481;52.588;22.472;2023-06-22T01:50:11;15.70;;;11.40;;
34035;SDS011;63481;52.588;22.472;2023-06-22T01:50:44;14.70;;;11.40;;
34035;SDS011;63481;52.588;22.472;2023-06-22T01:51:16;15.60;;;12.10;;
34035;SDS011;63481;52.588;22.472;2023-06-22T01:51:49;15.70;;;10.70;;
34035;SDS011;63481;52.588;22.472;2023-06-22T01:52:21;15.00;;;11.70;;
34035;SDS011;63481;52.588;22.472;2023-06-22T01:52:53;15.90;;;12.70;;
34035;SDS011;63481;52.588;22.472;2023-06-22T01:53:25;14.50;;;11.60;;
34035;SDS011;63481;52.588;22.472;2023-06-22T01:53:57;14.80;;;12.00;;
34035;SDS011;63481;52.588;22.472;2023-06-22T01:54:29;16.90;;;12.10;;
34035;SDS011;63481;52.588;22.472;2023-06-22T01:55:01;15.60;;;11.90;;
34035;SDS011;63481;52.588;22.472;2023-06-22T01:55:34;17.70;;;12.30;;
34035;SDS011;63481;52.588;22.472;2023-06-22T01:56:06;14.60;;;12.40;;
34035;SDS011;63481;52.588;22.472;2023-06-22T01:56:39;14.70;;;11.30;;
34035;SDS011;63481;52.588;22.472;2023-06-22T01:57:11;15.60;;;12.40;;
34035;SDS011;63481;52.588;22.472;2023-06-22T01:57:43;15.30;;;12.10;;
34035;SDS011;63481;52.588;22.472;2023-06-22T01:58:16;15.60;;;12.10;;
34035;SDS011;63481;52.588;22.472;2023-06-22T01:58:56;14.70;;;12.70;;
34035;SDS011;63481;52.588;22.472;2023-06-22T01:59:35;19.70;;;13.80;;
34035;SDS011;63481;52.588;22.472;2023-06-22T02:00:13;17.80;;;13.70;;
34035;SDS011;63481;52.588;22.472;2023-06-22T02:00:53;18.50;;;13.30;;
34035;SDS011;63481;52.588;22.472;2023-06-22T02:01:39;17.90;;;13.20;;
34035;SDS011;63481;52.588;22.472;2023-06-22T02:02:20;16.70;;;12.50;;
34035;SDS011;63481;52.588;22.472;2023-06-22T02:02:59;17.30;;;12.90;;
34035;SDS011;63481;52.588;22.472;2023-06-22T02:03:35;18.80;;;13.30;;
34035;SDS011;63481;52.588;22.472;2023-06-22T02:04:20;20.80;;;13.10;;
34035;SDS011;63481;52.588;22.472;2023-06-22T02:05:01;17.40;;;13.20;;
34035;SDS011;63481;52.588;22.472;2023-06-22T02:05:39;16.30;;;12.70;;
34035;SDS011;63481;52.588;22.472;2023-06-22T02:06:37;18.90;;;12.80;;
34035;SDS011;63481;52.588;22.472;2023-06-22T02:07:15;15.70;;;13.40;;
34035;SDS011;63481;52.588;22.472;2023-06-22T02:07:52;17.80;;;13.10;;
34035;SDS011;63481;52.588;22.472;2023-06-22T02:08:57;16.50;;;12.60;;
34035;SDS011;63481;52.588;22.472;2023-06-22T02:09:32;17.70;;;13.70;;
34035;SDS011;63481;52.588;22.472;2023-06-22T02:10:07;19.30;;;14.10;;
34035;SDS011;63481;52.588;22.472;2023-06-22T02:10:41;19.00;;;14.40;;
34035;SDS011;63481;52.588;22.472;2023-06-22T02:11:15;15.70;;;13.30;;
34035;SDS011;63481;52.588;22.472;2023-06-22T02:11:50;15.00;;;13.20;;
34035;SDS011;63481;52.588;22.472;2023-06-22T02:12:26;17.90;;;13.70;;
34035;SDS011;63481;52.588;22.472;2023-06-22T02:13:04;16.60;;;13.20;;
34035;SDS011;63481;52.588;22.472;2023-06-22T02:13:38;16.00;;;13.50;;
34035;SDS011;63481;52.588;22.472;2023-06-22T02:14:14;21.10;;;15.10;;
34035;SDS011;63481;52.588;22.472;2023-06-22T02:14:47;15.90;;;12.80;;
34035;SDS011;63481;52.588;22.472;2023-06-22T02:15:20;16.50;;;13.90;;
34035;SDS011;63481;52.588;22.472;2023-06-22T02:15:52;17.20;;;14.30;;
34035;SDS011;63481;52.588;22.472;2023-06-22T02:16:25;14.50;;;12.50;;
34035;SDS011;63481;52.588;22.472;2023-06-22T02:17:02;16.60;;;13.60;;
34035;SDS011;63481;52.588;22.472;2023-06-22T02:17:39;17.00;;;13.70;;
34035;SDS011;63481;52.588;22.472;2023-06-22T02:18:16;15.60;;;13.10;;
34035;SDS011;63481;52.588;22.472;2023-06-22T02:18:50;15.60;;;13.60;;
34035;SDS011;63481;52.588;22.472;2023-06-22T02:19:23;22.10;;;13.70;;
34035;SDS011;63481;52.588;22.472;2023-06-22T02:19:56;17.50;;;14.50;;
34035;SDS011;63481;52.588;22.472;2023-06-22T02:20:28;15.80;;;13.70;;
34035;SDS011;63481;52.588;22.472;2023-06-22T02:21:02;17.30;;;14.80;;
34035;SDS011;63481;52.588;22.472;2023-06-22T02:21:34;16.20;;;13.90;;
34035;SDS011;63481;52.588;22.472;2023-06-22T02:22:07;17.00;;;14.00;;
34035;SDS011;63481;52.588;22.472;2023-06-22T02:22:39;17.20;;;14.30;;
34035;SDS011;63481;52.588;22.472;2023-06-22T02:23:11;18.20;;;14.80;;
34035;SDS011;63481;52.588;22.472;2023-06-22T02:23:43;18.20;;;15.40;;
34035;SDS011;63481;52.588;22.472;2023-06-22T02:24:16;17.50;;;15.10;;
34035;SDS011;63481;52.588;22.472;2023-06-22T02:24:51;16.90;;;14.90;;
34035;SDS011;63481;52.588;22.472;2023-06-22T02:25:25;19.10;;;15.10;;
34035;SDS011;63481;52.588;22.472;2023-06-22T02:25:57;18.60;;;15.00;;
34035;SDS011;63481;52.588;22.472;2023-06-22T02:26:30;17.90;;;14.90;;
34035;SDS011;63481;52.588;22.472;2023-06-22T02:27:03;17.10;;;14.80;;
34035;SDS011;63481;52.588;22.472;2023-06-22T02:27:38;18.60;;;14.90;;
34035;SDS011;63481;52.588;22.472;2023-06-22T02:28:13;18.10;;;14.50;;
34035;SDS011;63481;52.588;22.472;2023-06-22T02:28:45;16.70;;;14.60;;
34035;SDS011;63481;52.588;22.472;2023-06-22T02:29:17;17.80;;;14.80;;
34035;SDS011;63481;52.588;22.472;2023-06-22T02:29:49;18.20;;;15.30;;
34035;SDS011;63481;52.588;22.472;2023-06-22T02:30:22;16.10;;;14.10;;
34035;SDS011;63481;52.588;22.472;2023-06-22T02:30:54;19.10;;;15.00;;
34035;SDS011;63481;52.588;22.472;2023-06-22T02:31:26;16.80;;;15.00;;
34035;SDS011;63481;52.588;22.472;2023-06-22T02:32:02;17.70;;;15.20;;
34035;SDS011;63481;52.588;22.472;2023-06-22T02:32:36;17.80;;;15.10;;
34035;SDS011;63481;52.588;22.472;2023-06-22T02:33:08;17.10;;;15.30;;
34035;SDS011;63481;52.588;22.472;2023-06-22T02:33:40;17.40;;;14.70;;
34035;SDS011;63481;52.588;22.472;2023-06-22T02:34:12;19.30;;;14.70;;
34035;SDS011;63481;52.588;22.472;2023-06-22T02:34:49;17.20;;;15.30;;
34035;SDS011;63481;52.588;22.472;2023-06-22T02:35:22;16.10;;;14.50;;
34035;SDS011;63481;52.588;22.472;2023-06-22T02:35:55;17.90;;;15.40;;
34035;SDS011;63481;52.588;22.472;2023-06-22T02:36:28;19.90;;;15.30;;
34035;SDS011;63481;52.588;22.472;2023-06-22T02:37:02;18.00;;;15.80;;
34035;SDS011;63481;52.588;22.472;2023-06-22T02:37:35;21.90;;;16.30;;
34035;SDS011;63481;52.588;22.472;2023-06-22T02:38:13;17.90;;;15.50;;
34035;SDS011;63481;52.588;22.472;2023-06-22T02:38:46;18.60;;;16.00;;
34035;SDS011;63481;52.588;22.472;2023-06-22T02:39:23;20.50;;;15.00;;
34035;SDS011;63481;52.588;22.472;2023-06-22T02:39:56;17.70;;;15.70;;
34035;SDS011;63481;52.588;22.472;2023-06-22T02:40:28;18.50;;;15.60;;
34035;SDS011;63481;52.588;22.472;2023-06-22T02:41:02;17.70;;;15.90;;
34035;SDS011;63481;52.588;22.472;2023-06-22T02:41:34;20.00;;;16.30;;
34035;SDS011;63481;52.588;22.472;2023-06-22T02:42:07;18.60;;;16.60;;
34035;SDS011;63481;52.588;22.472;2023-06-22T02:42:39;17.50;;;15.60;;
34035;SDS011;63481;52.588;22.472;2023-06-22T02:43:12;23.50;;;15.80;;
34035;SDS011;63481;52.588;22.472;2023-06-22T02:43:45;18.50;;;15.90;;
34035;SDS011;63481;52.588;22.472;2023-06-22T02:44:18;23.60;;;17.00;;
34035;SDS011;63481;52.588;22.472;2023-06-22T02:44:50;17.50;;;15.60;;
34035;SDS011;63481;52.588;22.472;2023-06-22T02:45:22;18.70;;;15.80;;
34035;SDS011;63481;52.588;22.472;2023-06-22T02:45:54;18.80;;;16.00;;
34035;SDS011;63481;52.588;22.472;2023-06-22T02:46:27;21.20;;;16.70;;
34035;SDS011;63481;52.588;22.472;2023-06-22T02:46:59;18.70;;;16.00;;
34035;SDS011;63481;52.588;22.472;2023-06-22T02:47:31;19.10;;;15.80;;
34035;SDS011;63481;52.588;22.472;2023-06-22T02:48:04;19.30;;;15.90;;
34035;SDS011;63481;52.588;22.472;2023-06-22T02:48:37;18.10;;;15.40;;
34035;SDS011;63481;52.588;22.472;2023-06-22T02:49:12;19.70;;;15.30;;
34035;SDS011;63481;52.588;22.472;2023-06-22T02:49:44;20.80;;;16.20;;
34035;SDS011;63481;52.588;22.472;2023-06-22T02:50:18;17.40;;;14.70;;
34035;SDS011;63481;52.588;22.472;2023-06-22T02:50:50;18.30;;;15.50;;
34035;SDS011;63481;52.588;22.472;2023-06-22T02:51:25;18.40;;;15.20;;
34035;SDS011;63481;52.588;22.472;2023-06-22T02:51:58;18.30;;;15.00;;
34035;SDS011;63481;52.588;22.472;2023-06-22T02:52:30;19.80;;;16.20;;
34035;SDS011;63481;52.588;22.472;2023-06-22T02:53:03;20.00;;;15.60;;
34035;SDS011;63481;52.588;22.472;2023-06-22T02:53:37;18.50;;;15.80;;
34035;SDS011;63481;52.588;22.472;2023-06-22T02:54:09;18.40;;;15.80;;
34035;SDS011;63481;52.588;22.472;2023-06-22T02:54:42;17.70;;;15.50;;
34035;SDS011;63481;52.588;22.472;2023-06-22T02:55:17;17.50;;;15.40;;
34035;SDS011;63481;52.588;22.472;2023-06-22T02:55:54;18.50;;;15.60;;
34035;SDS011;63481;52.588;22.472;2023-06-22T02:56:28;16.80;;;15.00;;
34035;SDS011;63481;52.588;22.472;2023-06-22T02:57:04;17.20;;;15.30;;
34035;SDS011;63481;52.588;22.472;2023-06-22T02:57:37;17.10;;;15.00;;
34035;SDS011;63481;52.588;22.472;2023-06-22T02:58:09;17.60;;;15.70;;
34035;SDS011;63481;52.588;22.472;2023-06-22T02:58:42;18.00;;;15.40;;
34035;SDS011;63481;52.588;22.472;2023-06-22T02:59:16;21.70;;;15.10;;
34035;SDS011;63481;52.588;22.472;2023-06-22T02:59:48;19.70;;;15.80;;
34035;SDS011;63481;52.588;22.472;2023-06-22T03:00:20;19.90;;;15.70;;
34035;SDS011;63481;52.588;22.472;2023-06-22T03:00:53;18.50;;;14.50;;
34035;SDS011;63481;52.588;22.472;2023-06-22T03:01:26;19.60;;;15.70;;
34035;SDS011;63481;52.588;22.472;2023-06-22T03:02:00;17.60;;;14.60;;
34035;SDS011;63481;52.588;22.472;2023-06-22T03:02:34;18.80;;;16.30;;
34035;SDS011;63481;52.588;22.472;2023-06-22T03:03:06;18.60;;;15.20;;
34035;SDS011;63481;52.588;22.472;2023-06-22T03:03:38;18.00;;;15.40;;
34035;SDS011;63481;52.588;22.472;2023-06-22T03:04:10;18.90;;;15.80;;
34035;SDS011;63481;52.588;22.472;2023-06-22T03:04:43;17.50;;;14.80;;
34035;SDS011;63481;52.588;22.472;2023-06-22T03:05:15;17.10;;;15.20;;
34035;SDS011;63481;52.588;22.472;2023-06-22T03:05:52;19.00;;;15.20;;
34035;SDS011;63481;52.588;22.472;2023-06-22T03:06:25;21.50;;;15.50;;
34035;SDS011;63481;52.588;22.472;2023-06-22T03:07:00;17.60;;;15.80;;
34035;SDS011;63481;52.588;22.472;2023-06-22T03:07:33;19.50;;;15.20;;
34035;SDS011;63481;52.588;22.472;2023-06-22T03:08:05;21.10;;;16.00;;
34035;SDS011;63481;52.588;22.472;2023-06-22T03:08:39;19.50;;;16.50;;
34035;SDS011;63481;52.588;22.472;2023-06-22T03:09:13;19.20;;;16.20;;
34035;SDS011;63481;52.588;22.472;2023-06-22T03:09:45;18.50;;;16.50;;
34035;SDS011;63481;52.588;22.472;2023-06-22T03:10:18;18.50;;;15.30;;
34035;SDS011;63481;52.588;22.472;2023-06-22T03:10:50;19.10;;;16.90;;
34035;SDS011;63481;52.588;22.472;2023-06-22T03:11:23;19.00;;;17.00;;
34035;SDS011;63481;52.588;22.472;2023-06-22T03:11:55;18.60;;;16.50;;
34035;SDS011;63481;52.588;22.472;2023-06-22T03:12:28;19.60;;;16.50;;
34035;SDS011;63481;52.588;22.472;2023-06-22T03:13:00;18.30;;;16.30;;
34035;SDS011;63481;52.588;22.472;2023-06-22T03:13:32;20.30;;;16.70;;
34035;SDS011;63481;52.588;22.472;2023-06-22T03:14:04;19.90;;;16.40;;
34035;SDS011;63481;52.588;22.472;2023-06-22T03:14:36;18.60;;;16.00;;
34035;SDS011;63481;52.588;22.472;2023-06-22T03:15:11;18.80;;;16.60;;
34035;SDS011;63481;52.588;22.472;2023-06-22T03:15:44;19.40;;;17.00;;
34035;SDS011;63481;52.588;22.472;2023-06-22T03:16:18;18.90;;;16.50;;
34035;SDS011;63481;52.588;22.472;2023-06-22T03:16:51;22.10;;;16.70;;
34035;SDS011;63481;52.588;22.472;2023-06-22T03:17:24;20.20;;;16.70;;
34035;SDS011;63481;52.588;22.472;2023-06-22T03:17:56;19.50;;;17.40;;
34035;SDS011;63481;52.588;22.472;2023-06-22T03:18:29;21.10;;;16.90;;
34035;SDS011;63481;52.588;22.472;2023-06-22T03:19:01;19.40;;;17.10;;
34035;SDS011;63481;52.588;22.472;2023-06-22T03:19:33;22.30;;;17.20;;
34035;SDS011;63481;52.588;22.472;2023-06-22T03:20:05;23.30;;;18.20;;
34035;SDS011;63481;52.588;22.472;2023-06-22T03:20:42;19.60;;;17.20;;
34035;SDS011;63481;52.588;22.472;2023-06-22T03:21:14;22.50;;;16.70;;
34035;SDS011;63481;52.588;22.472;2023-06-22T03:21:48;20.70;;;16.90;;
34035;SDS011;63481;52.588;22.472;2023-06-22T03:22:20;19.40;;;17.40;;
34035;SDS011;63481;52.588;22.472;2023-06-22T03:22:54;18.60;;;16.30;;
34035;SDS011;63481;52.588;22.472;2023-06-22T03:23:28;18.50;;;16.00;;